createdAt,value
2019-05-23T00:02:57.673Z,24.80
2019-05-23T00:09:42.508Z,24.80
2019-05-23T00:12:57.834Z,24.80
2019-05-23T00:16:16.620Z,24.80
2019-05-23T00:26:20.306Z,24.80
2019-05-23T00:29:45.140Z,24.80
2019-05-23T00:33:02.773Z,24.70
2019-05-23T00:36:18.362Z,24.70
2019-05-23T00:39:34.773Z,24.80
2019-05-23T00:42:50.595Z,24.80
2019-05-23T00:46:06.975Z,24.70
2019-05-23T00:49:24.557Z,24.80
2019-05-23T00:52:40.489Z,24.70
2019-05-23T00:55:56.322Z,24.70
2019-05-23T00:59:25.895Z,24.70
2019-05-23T01:02:30.519Z,24.70
2019-05-23T01:05:46.124Z,24.70
2019-05-23T01:09:02.894Z,24.70
2019-05-23T01:12:19.496Z,24.70
2019-05-23T01:15:35.851Z,24.70
2019-05-23T01:18:51.887Z,24.70
2019-05-23T01:22:10.982Z,24.70
2019-05-23T01:25:27.045Z,24.70
2019-05-23T01:28:42.510Z,24.70
2019-05-23T01:32:02.659Z,24.70
2019-05-23T01:42:14.359Z,24.70
2019-05-23T01:45:29.593Z,24.70
2019-05-23T01:48:45.699Z,24.70
2019-05-23T01:52:01.435Z,24.70
2019-05-23T01:55:17.803Z,24.70
2019-05-23T01:58:33.296Z,24.70
2019-05-23T02:01:49.708Z,24.70
2019-05-23T02:05:06.214Z,24.70
2019-05-23T02:08:20.070Z,24.70
2019-05-23T02:11:42.841Z,24.60
2019-05-23T02:14:59.488Z,24.60
2019-05-23T02:18:15.316Z,24.60
2019-05-23T02:25:01.874Z,24.60
2019-05-23T02:28:17.784Z,24.60
2019-05-23T02:31:34.265Z,24.60
2019-05-23T02:34:50.399Z,24.60
2019-05-23T02:38:28.384Z,24.70
2019-05-23T02:48:43.273Z,24.60
2019-05-23T02:52:00.150Z,24.60
2019-05-23T03:02:46.096Z,24.60
2019-05-23T03:06:02.086Z,24.60
2019-05-23T03:09:19.443Z,24.60
2019-05-23T03:12:35.674Z,24.60
2019-05-23T03:15:52.294Z,24.60
2019-05-23T03:19:08.598Z,24.60
2019-05-23T03:22:25.010Z,24.60
2019-05-23T03:25:41.361Z,24.60
2019-05-23T03:28:58.093Z,24.50
2019-05-23T03:36:01.508Z,24.60
2019-05-23T03:39:17.022Z,24.50
2019-05-23T03:42:33.042Z,24.60
2019-05-23T03:45:50.414Z,24.50
2019-05-23T03:49:06.262Z,24.50
2019-05-23T03:52:21.777Z,24.60
2019-05-23T03:55:38.598Z,24.50
2019-05-23T03:58:55.944Z,24.60
2019-05-23T04:02:13.286Z,24.50
2019-05-23T04:05:29.358Z,24.50
2019-05-23T04:08:46.915Z,24.50
2019-05-23T04:12:02.636Z,24.50
2019-05-23T04:15:19.082Z,24.50
2019-05-23T04:18:35.137Z,24.50
2019-05-23T04:21:50.439Z,24.50
2019-05-23T04:25:06.012Z,24.50
2019-05-23T04:28:21.708Z,24.50
2019-05-23T04:31:37.020Z,24.50
2019-05-23T04:38:18.991Z,24.50
2019-05-23T04:41:34.583Z,24.50
2019-05-23T04:44:49.911Z,24.50
2019-05-23T04:51:42.399Z,24.50
2019-05-23T04:54:58.547Z,24.50
2019-05-23T04:58:13.727Z,24.50
2019-05-23T05:01:29.540Z,24.50
2019-05-23T05:04:46.399Z,24.50
2019-05-23T05:08:02.409Z,24.50
2019-05-23T05:11:17.713Z,24.50
2019-05-23T05:14:34.013Z,24.50
2019-05-23T05:21:07.156Z,24.50
2019-05-23T05:24:24.508Z,24.50
2019-05-23T05:27:40.299Z,24.50
2019-05-23T05:30:55.943Z,24.50
2019-05-23T05:37:38.658Z,24.50
2019-05-23T05:44:18.815Z,24.50
2019-05-23T05:47:35.257Z,24.50
2019-05-23T05:50:51.524Z,24.50
2019-05-23T05:54:08.060Z,24.50
2019-05-23T06:00:49.688Z,24.50
2019-05-23T06:04:06.722Z,24.50
2019-05-23T06:07:41.566Z,24.50
2019-05-23T06:10:58.124Z,24.50
2019-05-23T06:14:13.948Z,24.50
2019-05-23T06:17:30.160Z,24.50
2019-05-23T06:20:47.557Z,24.50
2019-05-23T06:24:04.660Z,24.50
2019-05-23T06:27:20.245Z,24.50
2019-05-23T06:30:37.139Z,24.50
2019-05-23T06:33:53.523Z,24.50
2019-05-23T06:37:09.502Z,24.50
2019-05-23T06:40:26.306Z,24.50
2019-05-23T06:43:29.662Z,24.50
2019-05-23T06:46:48.157Z,24.50
2019-05-23T06:50:03.562Z,24.50
2019-05-23T06:56:36.708Z,24.50
2019-05-23T06:59:59.396Z,24.50
2019-05-23T07:06:38.359Z,24.50
2019-05-23T07:09:54.651Z,24.50
2019-05-23T07:19:58.505Z,24.50
2019-05-23T07:23:12.165Z,24.50
2019-05-23T07:30:08.871Z,24.50
2019-05-23T07:33:25.046Z,24.60
2019-05-23T07:36:40.267Z,24.60
2019-05-23T07:39:56.208Z,24.60
2019-05-23T07:43:12.594Z,24.60
2019-05-23T07:46:28.387Z,24.60
2019-05-23T07:49:44.382Z,24.60
2019-05-23T07:52:57.937Z,24.70
2019-05-23T07:56:39.895Z,24.60
2019-05-23T07:59:43.136Z,24.70
2019-05-23T08:03:05.931Z,24.60
2019-05-23T08:06:29.956Z,24.70
2019-05-23T08:09:33.358Z,24.60
2019-05-23T08:12:56.065Z,24.70
2019-05-23T08:16:20.363Z,24.70
2019-05-23T08:19:48.953Z,24.70
2019-05-23T08:22:53.302Z,24.70
2019-05-23T08:26:08.683Z,24.70
2019-05-23T08:29:26.630Z,24.70
2019-05-23T08:32:42.827Z,24.70
2019-05-23T08:36:00.414Z,24.70
2019-05-23T08:39:18.051Z,24.70
2019-05-23T08:45:58.049Z,24.70
2019-05-23T08:49:01.474Z,24.70
2019-05-23T08:52:24.148Z,24.70
2019-05-23T08:59:23.284Z,24.70
2019-05-23T09:02:41.671Z,24.70
2019-05-23T09:05:57.719Z,24.70
2019-05-23T09:09:28.422Z,24.70
2019-05-23T09:12:31.036Z,24.70
2019-05-23T09:15:46.783Z,24.70
2019-05-23T09:18:50.078Z,24.70
2019-05-23T09:25:41.892Z,24.70
2019-05-23T09:32:27.330Z,24.70
2019-05-23T09:35:43.421Z,24.70
2019-05-23T09:38:59.299Z,24.70
2019-05-23T09:42:15.234Z,24.80
2019-05-23T09:45:31.233Z,24.80
2019-05-23T09:48:47.187Z,24.70
2019-05-23T09:52:03.177Z,24.80
2019-05-23T09:55:19.482Z,24.80
2019-05-23T09:58:34.862Z,24.80
2019-05-23T10:05:08.213Z,24.80
2019-05-23T10:08:24.053Z,24.80
2019-05-23T10:11:27.336Z,24.80
2019-05-23T10:29:09.385Z,24.80
2019-05-23T10:32:25.130Z,24.80
2019-05-23T10:35:56.872Z,24.80
2019-05-23T10:38:58.004Z,24.80
2019-05-23T10:49:18.885Z,24.80
2019-05-23T10:55:51.410Z,24.90
2019-05-23T11:16:35.992Z,24.90
2019-05-23T11:23:50.052Z,24.90
2019-05-23T11:27:12.795Z,25.00
2019-05-23T11:33:52.542Z,25.00
2019-05-23T11:37:08.223Z,25.00
2019-05-23T11:43:54.873Z,25.00
2019-05-23T11:47:10.791Z,25.00
2019-05-23T11:50:26.130Z,25.00
2019-05-23T11:53:44.981Z,25.00
2019-05-23T12:00:32.647Z,25.10
2019-05-23T12:07:19.489Z,25.20
2019-05-23T12:10:38.174Z,25.10
2019-05-23T12:20:59.459Z,25.20
2019-05-23T12:24:14.594Z,25.20
2019-05-23T12:27:30.771Z,25.20
2019-05-23T12:30:47.236Z,25.20
2019-05-23T12:34:04.900Z,25.20
2019-05-23T12:37:20.818Z,25.20
2019-05-23T12:40:42.084Z,25.20
2019-05-23T12:47:21.094Z,25.20
2019-05-23T12:50:46.689Z,25.30
2019-05-23T12:54:33.813Z,25.30
2019-05-23T13:18:36.588Z,25.40
2019-05-23T13:32:55.776Z,25.40
2019-05-23T14:11:44.408Z,25.60
2019-05-23T14:15:03.534Z,25.60
2019-05-23T14:18:33.670Z,25.70
2019-05-23T14:21:53.964Z,25.70
2019-05-23T14:29:24.846Z,25.70
2019-05-23T15:07:36.999Z,25.90
2019-05-23T15:12:25.082Z,25.90
2019-05-23T15:14:17.953Z,25.90
2019-05-23T15:24:52.178Z,25.90
2019-05-23T15:28:07.618Z,25.90
2019-05-23T15:31:23.755Z,25.90
2019-05-23T15:34:39.124Z,25.90
2019-05-23T15:41:11.495Z,25.90
2019-05-23T15:44:25.476Z,25.90
2019-05-23T15:50:54.365Z,25.90
2019-05-23T15:54:28.953Z,25.90
2019-05-23T15:57:49.234Z,25.90
2019-05-23T16:04:28.580Z,25.90
2019-05-23T16:17:50.967Z,25.90
2019-05-23T16:21:07.169Z,25.80
2019-05-23T16:24:23.135Z,25.80
2019-05-23T16:27:38.417Z,25.80
2019-05-23T16:30:53.607Z,25.80
2019-05-23T16:33:56.854Z,25.80
2019-05-23T16:37:19.637Z,25.80
2019-05-23T16:40:42.336Z,25.80
2019-05-23T16:43:58.052Z,25.80
2019-05-23T16:47:19.906Z,25.80
2019-05-23T16:50:35.644Z,25.80
2019-05-23T16:53:51.996Z,25.80
2019-05-23T16:57:13.331Z,25.80
2019-05-23T17:00:35.757Z,25.80
2019-05-23T17:04:10.700Z,25.80
2019-05-23T17:07:27.754Z,25.80
2019-05-23T17:21:34.771Z,25.80
2019-05-23T17:24:51.819Z,25.80
2019-05-23T17:28:09.838Z,25.80
2019-05-23T17:31:51.737Z,25.80
2019-05-23T17:34:54.979Z,25.80
2019-05-23T17:37:58.235Z,25.80
2019-05-23T17:44:52.488Z,25.80
2019-05-23T17:48:11.256Z,25.80
2019-05-23T17:51:28.019Z,25.80
2019-05-23T17:54:43.953Z,25.80
2019-05-23T17:57:59.942Z,25.80
2019-05-23T18:01:16.216Z,25.80
2019-05-23T18:04:32.238Z,25.80
2019-05-23T18:07:48.198Z,25.80
2019-05-23T18:11:04.365Z,25.80
2019-05-23T18:14:07.729Z,25.80
2019-05-23T18:23:57.531Z,25.80
2019-05-23T18:30:53.234Z,25.80
2019-05-23T18:34:10.351Z,25.70
2019-05-23T18:37:25.794Z,25.70
2019-05-23T18:40:41.835Z,25.70
2019-05-23T18:47:33.511Z,25.70
2019-05-23T18:54:21.654Z,25.70
2019-05-23T18:57:37.945Z,25.70
2019-05-23T19:00:53.731Z,25.70
2019-05-23T19:04:10.974Z,25.70
2019-05-23T19:07:26.779Z,25.70
2019-05-23T19:10:42.434Z,25.70
2019-05-23T19:13:58.315Z,25.80
2019-05-23T19:17:14.368Z,25.70
2019-05-23T19:20:30.512Z,25.80
2019-05-23T19:23:46.165Z,25.80
2019-05-23T19:27:02.055Z,25.80
2019-05-23T19:30:18.189Z,25.80
2019-05-23T19:33:34.392Z,25.80
2019-05-23T19:36:37.712Z,25.80
2019-05-23T19:40:00.394Z,25.80
2019-05-23T19:43:15.659Z,25.80
2019-05-23T19:46:18.902Z,25.80
2019-05-23T19:49:35.010Z,25.80
2019-05-23T19:52:50.979Z,25.80
2019-05-23T19:56:06.961Z,25.80
2019-05-23T19:59:22.619Z,25.80
2019-05-23T20:02:45.062Z,25.80
2019-05-23T20:13:09.952Z,25.80
2019-05-23T20:16:25.546Z,25.80
2019-05-23T20:19:39.110Z,25.80
2019-05-23T20:23:01.953Z,25.80
2019-05-23T20:26:18.079Z,25.90
2019-05-23T20:29:34.110Z,25.80
2019-05-23T20:32:49.391Z,25.80
2019-05-23T20:39:30.256Z,25.80
2019-05-23T20:42:48.602Z,25.80
2019-05-23T20:49:27.574Z,25.80
2019-05-23T20:52:43.502Z,25.80
2019-05-23T20:55:59.618Z,25.70
2019-05-23T20:59:15.214Z,25.80
2019-05-23T21:02:31.498Z,25.70
2019-05-23T21:05:34.755Z,25.70
2019-05-23T21:08:57.435Z,25.70
2019-05-23T21:12:28.463Z,25.70
2019-05-23T21:15:35.423Z,25.70
2019-05-23T21:18:51.212Z,25.60
2019-05-23T21:22:06.416Z,25.60
2019-05-23T21:25:22.338Z,25.60
2019-05-23T21:28:38.385Z,25.60
2019-05-23T21:31:53.623Z,25.60
2019-05-23T21:35:12.090Z,25.60
2019-05-23T21:38:28.339Z,25.60
2019-05-23T21:41:44.085Z,25.60
2019-05-23T21:44:47.335Z,25.60
2019-05-23T21:47:50.602Z,25.60
2019-05-23T21:51:34.097Z,25.60
2019-05-23T21:54:56.870Z,25.60
2019-05-23T21:58:00.152Z,25.60
2019-05-23T22:08:18.209Z,25.50
2019-05-23T22:11:31.786Z,25.50
2019-05-23T22:18:18.726Z,25.50
2019-05-23T22:21:41.434Z,25.40
2019-05-23T22:24:44.690Z,25.40
2019-05-23T22:28:07.401Z,25.40
2019-05-23T22:31:23.502Z,25.40
2019-05-23T22:34:40.439Z,25.40
2019-05-23T22:37:55.827Z,25.40
2019-05-23T22:41:11.795Z,25.40
2019-05-23T22:44:27.872Z,25.40
2019-05-23T22:47:44.140Z,25.40
2019-05-23T22:50:59.586Z,25.40
2019-05-23T22:54:15.497Z,25.40
2019-05-23T22:57:31.583Z,25.40
2019-05-23T23:00:48.825Z,25.40
2019-05-23T23:04:04.561Z,25.30
2019-05-23T23:07:18.179Z,25.40
2019-05-23T23:10:40.855Z,25.30
2019-05-23T23:13:56.697Z,25.30
2019-05-23T23:17:12.753Z,25.30
2019-05-23T23:20:28.457Z,25.30
2019-05-23T23:23:44.599Z,25.30
2019-05-23T23:27:00.696Z,25.30
2019-05-23T23:30:18.025Z,25.30
2019-05-23T23:33:31.549Z,25.30
2019-05-23T23:36:54.265Z,25.30
2019-05-23T23:40:10.847Z,25.30
2019-05-23T23:43:26.618Z,25.20
2019-05-23T23:47:01.735Z,25.30
2019-05-23T23:50:36.455Z,25.30
2019-05-23T23:54:11.210Z,25.20
2019-05-23T23:57:46.072Z,25.20
